Time;durP1;ratioP1;P1;durP2;ratioP2;P2;SDS_P1;SDS_P2;PMS_P1;PMS_P2;Temp;Humidity;BMP_temperature;BMP_pressure;BME280_temperature;BME280_humidity;BME280_pressure;Samples;Min_cycle;Max_cycle;Signal;HPM_P1;HPM_P2
2023/04/15 00:00:57;;;;;;;4.95;4.45;;;;;;;5.54;96.09;100232.75;7788277;18;20002;-68
2023/04/15 00:03:23;;;;;;;5.85;5.38;;;;;;;5.52;96.52;100238.91;7839237;18;19998;-68
2023/04/15 00:05:50;;;;;;;5.93;5.53;;;;;;;5.06;97.42;100163.47;7791400;18;20008;-68
2023/04/15 00:08:17;;;;;;;5.65;5.28;;;;;;;5.36;96.92;100221.28;7838978;18;20196;-67
2023/04/15 00:10:45;;;;;;;5.28;4.82;;;;;;;5.49;97.24;100239.03;7789866;18;20146;-66
2023/04/15 00:13:12;;;;;;;4.88;4.57;;;;;;;5.17;97.81;100208.16;7838954;18;20006;-68
2023/04/15 00:15:38;;;;;;;5.78;5.25;;;;;;;5.43;98.94;100242.72;7791585;18;20001;-68
2023/04/15 00:18:04;;;;;;;5.07;4.68;;;;;;;5.37;99.26;100241.22;7841807;18;20729;-67
2023/04/15 00:20:31;;;;;;;6.65;5.57;;;;;;;5.34;99.31;100245.69;7791207;18;20001;-67
2023/04/15 00:22:58;;;;;;;5.57;5.18;;;;;;;4.98;100.00;100196.72;7837148;18;20016;-67
2023/04/15 00:25:24;;;;;;;5.85;5.00;;;;;;;4.49;100.00;100126.59;7791317;18;20803;-67
2023/04/15 00:27:51;;;;;;;5.93;5.13;;;;;;;4.05;100.00;100052.84;7837256;18;20606;-64
2023/04/15 00:30:18;;;;;;;5.15;4.75;;;;;;;5.18;100.00;100254.03;7789303;18;20025;-64
2023/04/15 00:32:45;;;;;;;4.50;4.20;;;;;;;5.16;100.00;100250.66;7836775;18;20008;-65
2023/04/15 00:35:12;;;;;;;5.57;5.07;;;;;;;5.14;100.00;100249.03;7791570;18;20090;-65
2023/04/15 00:37:38;;;;;;;8.70;5.65;;;;;;;4.96;100.00;100229.75;7836288;18;20561;-65
2023/04/15 00:40:06;;;;;;;4.88;4.43;;;;;;;5.07;100.00;100255.34;7789338;18;20025;-66
2023/04/15 00:42:34;;;;;;;4.50;4.20;;;;;;;4.98;100.00;100248.72;7839323;18;20017;-65
2023/04/15 00:45:00;;;;;;;5.47;4.97;;;;;;;4.93;100.00;100237.63;7792788;18;20014;-64
2023/04/15 00:47:28;;;;;;;5.30;4.97;;;;;;;4.37;100.00;100147.78;7839155;18;20062;-65
2023/04/15 00:49:55;;;;;;;5.28;4.95;;;;;;;4.96;100.00;100255.75;7789347;18;20029;-65
2023/04/15 00:52:21;;;;;;;5.00;4.70;;;;;;;4.92;100.00;100247.19;7835584;18;20001;-66
2023/04/15 00:54:48;;;;;;;6.07;5.53;;;;;;;4.70;100.00;100212.47;7789429;18;20018;-64
2023/04/15 00:57:14;;;;;;;6.18;5.38;;;;;;;4.81;100.00;100241.53;7839830;18;20016;-64
2023/04/15 00:59:41;;;;;;;5.10;4.70;;;;;;;4.80;100.00;100245.03;7789399;18;20028;-66
2023/04/15 01:02:07;;;;;;;5.10;4.80;;;;;;;4.78;100.00;100246.84;7835412;18;20005;-66
2023/04/15 01:04:34;;;;;;;5.47;5.05;;;;;;;4.48;100.00;100220.19;7788940;18;20618;-68
2023/04/15 01:07:01;;;;;;;5.25;4.85;;;;;;;4.67;100.00;100248.97;7837540;18;20004;-63
2023/04/15 01:09:28;;;;;;;8.70;5.72;;;;;;;4.63;100.00;100250.84;7788305;18;20013;-63
2023/04/15 01:11:55;;;;;;;4.93;4.60;;;;;;;4.58;100.00;100248.38;7838378;18;20875;-65
2023/04/15 01:14:22;;;;;;;5.80;5.38;;;;;;;4.54;100.00;100253.75;7789189;18;20677;-67
2023/04/15 01:16:48;;;;;;;5.72;5.25;;;;;;;4.53;100.00;100249.44;7838001;18;20063;-66
2023/04/15 01:19:16;;;;;;;5.55;5.15;;;;;;;4.15;100.00;100190.13;7789216;18;20002;-67
2023/04/15 01:21:44;;;;;;;5.72;5.25;;;;;;;4.11;100.00;100187.66;7837212;18;19993;-67
2023/04/15 01:24:15;;;;;;;5.28;4.88;;;;;;;4.12;100.00;100210.16;7788428;18;20006;-67
2023/04/15 01:26:42;;;;;;;4.55;4.20;;;;;;;4.43;100.00;100261.06;7835818;18;20006;-67
2023/04/15 01:29:10;;;;;;;5.03;4.68;;;;;;;4.39;100.00;100255.13;7787953;18;20009;-66
2023/04/15 01:31:36;;;;;;;4.53;4.25;;;;;;;4.40;100.00;100249.88;7837492;18;20547;-67
2023/04/15 01:34:03;;;;;;;5.47;4.97;;;;;;;4.33;100.00;100258.78;7788474;18;20518;-67
2023/04/15 01:36:29;;;;;;;6.90;6.20;;;;;;;4.26;100.00;100254.69;7838014;18;20069;-67
2023/04/15 01:38:57;;;;;;;5.90;5.50;;;;;;;4.22;100.00;100258.28;7789763;18;20002;-67
2023/04/15 01:41:25;;;;;;;11.32;4.88;;;;;;;4.03;100.00;100242.47;7837682;18;20013;-65
2023/04/15 01:43:53;;;;;;;4.75;4.35;;;;;;;2.63;100.00;100054.88;7789066;18;20001;-66
2023/04/15 01:46:19;;;;;;;6.72;5.18;;;;;;;4.06;100.00;100250.13;7838265;18;20014;-66
2023/04/15 01:48:46;;;;;;;5.07;4.68;;;;;;;4.06;100.00;100252.72;7789052;18;20165;-67
2023/04/15 01:51:12;;;;;;;3.75;3.58;;;;;;;4.04;100.00;100251.09;7837782;18;20009;-68
2023/04/15 01:53:38;;;;;;;5.15;4.85;;;;;;;3.99;100.00;100246.91;7788236;18;20064;-65
2023/04/15 01:56:06;;;;;;;4.30;4.10;;;;;;;3.97;100.00;100253.88;7837491;18;20481;-66
2023/04/15 01:58:32;;;;;;;4.93;4.63;;;;;;;3.43;100.00;100163.03;7788688;18;20053;-66
2023/04/15 02:00:58;;;;;;;4.60;4.22;;;;;;;3.85;100.00;100303.59;7836970;18;20012;-67
2023/04/15 02:03:26;;;;;;;5.65;5.07;;;;;;;3.85;100.00;100256.88;7786484;18;20013;-67
2023/04/15 02:05:53;;;;;;;5.55;4.68;;;;;;;3.75;100.00;100251.13;7837000;18;20008;-66
2023/04/15 02:08:19;;;;;;;5.15;4.75;;;;;;;3.24;100.00;100167.97;7788785;18;19993;-65
2023/04/15 02:10:48;;;;;;;4.97;4.70;;;;;;;3.70;100.00;100253.00;7836315;18;19998;-65
2023/04/15 02:13:15;;;;;;;4.38;4.07;;;;;;;3.33;100.00;100198.81;7789151;18;20060;-66
2023/04/15 02:15:49;;;;;;;5.93;5.43;;;;;;;3.38;100.00;100222.84;7834575;18;19998;-66
2023/04/15 02:18:16;;;;;;;4.03;3.83;;;;;;;3.42;100.00;100249.56;7789046;18;20002;-66
2023/04/15 02:20:42;;;;;;;4.45;4.18;;;;;;;3.58;100.00;100251.63;7835716;18;20004;-66
2023/04/15 02:23:10;;;;;;;5.07;4.55;;;;;;;3.58;100.00;100253.38;7788675;18;20010;-67
2023/04/15 02:25:37;;;;;;;5.75;5.28;;;;;;;3.56;100.00;100262.97;7837691;18;20057;-66
2023/04/15 02:28:05;;;;;;;5.50;5.00;;;;;;;3.55;100.00;100261.28;7785241;18;19998;-66
2023/04/15 02:30:32;;;;;;;5.05;4.65;;;;;;;2.95;100.00;100161.91;7836482;18;20013;-66
2023/04/15 02:32:59;;;;;;;5.18;4.88;;;;;;;2.75;100.00;100128.81;7787802;18;20010;-67
2023/04/15 02:35:26;;;;;;;5.38;4.30;;;;;;;3.37;100.00;100229.78;7837065;18;19998;-68
2023/04/15 02:37:53;;;;;;;4.93;4.57;;;;;;;3.56;100.00;100260.38;7786702;18;20192;-66
2023/04/15 02:40:19;;;;;;;4.82;4.43;;;;;;;3.52;100.00;100262.19;7834396;18;20458;-67
2023/04/15 02:42:46;;;;;;;4.75;4.45;;;;;;;3.47;100.00;100264.09;7787553;18;20503;-67
2023/04/15 02:45:12;;;;;;;3.83;3.63;;;;;;;3.44;100.00;100258.16;7836977;18;20024;-66
2023/04/15 02:47:40;;;;;;;3.83;3.63;;;;;;;2.63;100.00;100132.59;7788105;18;20006;-67
2023/04/15 02:50:08;;;;;;;4.85;4.45;;;;;;;3.34;100.00;100260.16;7835918;18;20359;-66
2023/04/15 02:52:34;;;;;;;3.95;3.75;;;;;;;3.28;100.00;100263.78;7788167;18;20622;-66
2023/04/15 02:55:04;;;;;;;4.68;4.38;;;;;;;2.49;100.00;100137.34;7837019;18;20000;-67
2023/04/15 02:57:30;;;;;;;3.95;3.75;;;;;;;2.81;100.00;100211.56;7789446;18;19998;-67
2023/04/15 02:59:56;;;;;;;3.65;3.50;;;;;;;3.10;100.00;100259.13;7834755;18;20010;-67
2023/04/15 03:02:23;;;;;;;3.78;3.50;;;;;;;3.07;100.00;100277.38;7789200;18;19998;-67
2023/04/15 03:04:50;;;;;;;4.85;4.38;;;;;;;2.96;100.00;100257.75;7833526;18;20005;-67
2023/04/15 03:07:17;;;;;;;4.43;4.20;;;;;;;2.35;100.00;100164.44;7789289;18;19998;-67
2023/04/15 03:09:44;;;;;;;3.95;3.75;;;;;;;2.93;100.00;100268.22;7836017;18;20029;-65
2023/04/15 03:12:11;;;;;;;4.45;4.18;;;;;;;2.78;100.00;100251.34;7788624;18;20072;-66
2023/04/15 03:14:37;;;;;;;4.60;4.30;;;;;;;2.89;100.00;100270.97;7835090;18;20411;-67
2023/04/15 03:17:04;;;;;;;4.10;3.90;;;;;;;2.67;100.00;100248.22;7788664;18;20002;-66
2023/04/15 03:19:30;;;;;;;4.40;4.15;;;;;;;2.84;100.00;100276.25;7835760;18;20057;-67
2023/04/15 03:21:57;;;;;;;4.43;4.22;;;;;;;2.82;100.00;100274.59;7787843;18;20419;-65
2023/04/15 03:24:23;;;;;;;8.32;4.75;;;;;;;2.85;100.00;100277.13;7837692;18;20005;-66
2023/04/15 03:26:50;;;;;;;4.07;3.80;;;;;;;2.26;100.00;100177.63;7789368;18;20005;-68
2023/04/15 03:29:16;;;;;;;4.38;4.07;;;;;;;2.83;100.00;100277.16;7838146;18;20060;-67
2023/04/15 03:31:43;;;;;;;4.20;4.00;;;;;;;2.56;100.00;100235.53;7787935;18;20637;-67
2023/04/15 03:34:11;;;;;;;4.38;4.07;;;;;;;2.80;100.00;100278.06;7837602;18;19997;-66
2023/04/15 03:36:38;;;;;;;4.75;4.35;;;;;;;2.77;100.00;100270.38;7790818;18;19994;-68
2023/04/15 03:39:04;;;;;;;3.97;3.67;;;;;;;2.72;100.00;100258.44;7837924;18;20009;-68
2023/04/15 03:41:31;;;;;;;4.43;4.22;;;;;;;2.44;100.00;100216.88;7789048;18;20006;-67
2023/04/15 03:43:58;;;;;;;4.28;4.07;;;;;;;2.77;100.00;100277.31;7837570;18;20224;-66
2023/04/15 03:46:24;;;;;;;4.30;4.05;;;;;;;2.75;100.00;100272.16;7789441;18;20372;-66
2023/04/15 03:48:51;;;;;;;3.92;3.72;;;;;;;2.74;100.00;100277.38;7837221;18;20049;-67
2023/04/15 03:51:17;;;;;;;3.83;3.60;;;;;;;2.73;100.00;100279.13;7792240;18;20061;-67
2023/04/15 03:53:43;;;;;;;4.03;3.83;;;;;;;2.73;100.00;100279.13;7838198;18;20006;-67
2023/04/15 03:56:10;;;;;;;4.95;4.38;;;;;;;2.26;100.00;100239.75;7790595;18;20556;-67
2023/04/15 03:58:36;;;;;;;4.03;3.83;;;;;;;2.64;100.00;100268.16;7836846;18;20009;-66
2023/04/15 04:01:02;;;;;;;4.20;3.90;;;;;;;2.58;100.00;100261.41;7789506;18;20025;-67
2023/04/15 04:03:29;;;;;;;4.53;4.07;;;;;;;2.69;100.00;100282.69;7839762;18;20005;-67
2023/04/15 04:05:55;;;;;;;4.15;3.95;;;;;;;2.32;100.00;100221.47;7788002;18;20004;-68
2023/04/15 04:08:22;;;;;;;9.85;5.72;;;;;;;2.23;100.00;100219.16;7835924;18;20064;-67
2023/04/15 04:10:48;;;;;;;4.68;4.45;;;;;;;2.64;100.00;100291.47;7789459;18;20021;-66
2023/04/15 04:13:15;;;;;;;4.57;4.35;;;;;;;2.62;100.00;100294.09;7837982;18;20682;-67
2023/04/15 04:15:41;;;;;;;4.45;4.20;;;;;;;2.53;100.00;100284.00;7790294;18;20002;-67
2023/04/15 04:18:08;;;;;;;4.25;4.05;;;;;;;2.50;100.00;100291.81;7838108;18;20009;-67
2023/04/15 04:20:34;;;;;;;3.90;3.70;;;;;;;2.44;100.00;100292.81;7789283;18;20039;-66
2023/04/15 04:23:00;;;;;;;4.15;3.75;;;;;;;2.12;100.00;100234.09;7836364;18;20017;-67
2023/04/15 04:25:27;;;;;;;3.75;3.58;;;;;;;2.42;100.00;100286.84;7790856;18;20002;-66
2023/04/15 04:27:53;;;;;;;4.45;4.05;;;;;;;2.39;100.00;100285.19;7836334;18;20008;-67
2023/04/15 04:30:20;;;;;;;4.07;3.78;;;;;;;2.42;100.00;100288.59;7790373;18;20271;-66
2023/04/15 04:32:46;;;;;;;3.58;3.42;;;;;;;1.87;100.00;100201.06;7837118;18;20566;-66
2023/04/15 04:35:13;;;;;;;6.13;3.90;;;;;;;2.45;100.00;100293.69;7789198;18;20028;-66
2023/04/15 04:37:39;;;;;;;5.40;4.20;;;;;;;1.18;100.00;100079.44;7837985;18;20208;-66
2023/04/15 04:40:06;;;;;;;4.35;4.05;;;;;;;2.41;100.00;100285.16;7789252;18;20002;-66
2023/04/15 04:42:33;;;;;;;4.15;3.33;;;;;;;2.49;100.00;100310.88;7837079;18;20468;-66
2023/04/15 04:44:59;;;;;;;4.30;4.07;;;;;;;2.46;100.00;100304.00;7787204;18;20001;-66
2023/04/15 04:47:26;;;;;;;3.92;3.67;;;;;;;2.45;100.00;100312.66;7838372;18;19997;-66
2023/04/15 04:49:52;;;;;;;4.65;4.35;;;;;;;2.49;100.00;100314.28;7786951;18;20013;-67
2023/04/15 04:52:19;;;;;;;4.47;4.10;;;;;;;2.55;100.00;100328.84;7837185;18;19997;-67
2023/04/15 04:54:46;;;;;;;3.83;3.65;;;;;;;2.54;100.00;100327.13;7787313;18;19994;-66
2023/04/15 04:57:12;;;;;;;3.47;3.28;;;;;;;2.19;100.00;100264.13;7838789;18;20664;-65
2023/04/15 04:59:39;;;;;;;4.38;4.07;;;;;;;2.60;100.00;100326.97;7789285;18;20008;-66
2023/04/15 05:02:06;;;;;;;3.53;3.38;;;;;;;2.14;100.00;100265.97;7837697;18;20092;-67
2023/04/15 05:04:33;;;;;;;3.80;3.55;;;;;;;2.51;100.00;100319.44;7789885;18;20060;-67
2023/04/15 05:06:59;;;;;;;3.50;3.40;;;;;;;2.59;100.00;100336.47;7835500;18;20021;-67
2023/04/15 05:09:26;;;;;;;4.30;4.00;;;;;;;2.63;100.00;100336.41;7789035;18;20009;-67
2023/04/15 05:11:52;;;;;;;4.28;4.07;;;;;;;2.65;100.00;100340.66;7834818;18;19998;-67
2023/04/15 05:14:21;;;;;;;3.53;3.40;;;;;;;2.72;100.00;100333.56;7786587;18;20010;-66
2023/04/15 05:16:49;;;;;;;3.90;3.70;;;;;;;2.57;100.00;100311.50;7837478;18;19994;-67
2023/04/15 05:19:15;;;;;;;5.13;4.03;;;;;;;2.82;100.00;100337.63;7788292;18;20006;-65
2023/04/15 05:21:41;;;;;;;4.25;4.05;;;;;;;2.86;100.00;100338.41;7837092;18;20096;-67
2023/04/15 05:24:08;;;;;;;4.57;4.28;;;;;;;3.04;100.00;100348.28;7788559;18;20006;-66
2023/04/15 05:26:34;;;;;;;6.72;4.45;;;;;;;2.93;100.00;100327.84;7838170;18;20006;-66
2023/04/15 05:29:01;;;;;;;5.75;5.35;;;;;;;3.25;100.00;100351.19;7788349;18;19994;-67
2023/04/15 05:31:28;;;;;;;4.15;3.95;;;;;;;3.42;100.00;100353.31;7838819;18;20009;-66
2023/04/15 05:33:54;;;;;;;4.70;4.40;;;;;;;3.54;100.00;100361.59;7786513;18;20106;-67
2023/04/15 05:36:21;;;;;;;5.32;4.95;;;;;;;3.51;100.00;100342.69;7838834;18;20010;-67
2023/04/15 05:38:47;;;;;;;4.55;4.30;;;;;;;3.87;100.00;100365.84;7789936;18;20021;-66
2023/04/15 05:41:14;;;;;;;4.32;4.03;;;;;;;3.79;100.00;100316.78;7837946;18;20024;-67
2023/04/15 05:43:43;;;;;;;4.78;4.47;;;;;;;4.41;100.00;100372.84;7788037;18;20644;-66
2023/04/15 05:46:10;;;;;;;5.32;4.85;;;;;;;4.61;100.00;100380.00;7838377;18;20015;-66
2023/04/15 05:48:36;;;;;;;5.03;4.72;;;;;;;4.82;100.00;100380.19;7789543;18;20060;-67
2023/04/15 05:51:03;;;;;;;11.05;5.18;;;;;;;5.07;100.00;100383.66;7836840;18;20395;-67
2023/04/15 05:53:29;;;;;;;4.47;4.18;;;;;;;5.25;100.00;100381.28;7788994;18;20022;-67
2023/04/15 05:55:56;;;;;;;5.15;4.75;;;;;;;5.19;100.00;100331.19;7837920;18;19994;-66
2023/04/15 05:58:22;;;;;;;9.35;6.00;;;;;;;5.63;100.00;100381.66;7789501;18;20006;-66
2023/04/15 06:00:48;;;;;;;6.78;4.90;;;;;;;5.91;100.00;100378.88;7836836;18;19998;-66
2023/04/15 06:03:15;;;;;;;5.75;5.22;;;;;;;5.91;100.00;100332.88;7789743;18;20009;-65
2023/04/15 06:05:43;;;;;;;4.93;4.63;;;;;;;6.30;100.00;100373.06;7837839;18;20006;-68
2023/04/15 06:08:10;;;;;;;6.00;5.43;;;;;;;6.42;100.00;100366.53;7786738;18;19998;-65
2023/04/15 06:10:36;;;;;;;6.80;6.07;;;;;;;6.30;100.00;100336.59;7837922;18;20025;-65
2023/04/15 06:13:03;;;;;;;6.47;5.50;;;;;;;6.19;100.00;100293.59;7788205;18;20608;-65
2023/04/15 06:15:30;;;;;;;9.07;6.22;;;;;;;6.64;100.00;100362.13;7835105;18;19998;-64
2023/04/15 06:17:59;;;;;;;6.22;5.72;;;;;;;6.81;100.00;100358.81;7787686;18;20025;-64
2023/04/15 06:20:25;;;;;;;5.95;5.45;;;;;;;6.85;100.00;100354.31;7835109;18;20068;-64
2023/04/15 06:22:52;;;;;;;8.20;5.90;;;;;;;6.82;100.00;100333.59;7787107;18;20146;-67
2023/04/15 06:25:18;;;;;;;5.75;5.25;;;;;;;6.75;100.00;100326.00;7837768;18;20599;-66
2023/04/15 06:27:45;;;;;;;6.65;5.93;;;;;;;6.93;100.00;100347.84;7790460;18;20025;-68
2023/04/15 06:30:11;;;;;;;6.38;5.72;;;;;;;7.08;100.00;100371.63;7836639;18;20071;-68
2023/04/15 06:32:38;;;;;;;5.18;4.78;;;;;;;7.06;100.00;100382.09;7790564;18;20526;-67
2023/04/15 06:35:05;;;;;;;5.85;4.95;;;;;;;7.05;100.00;100366.50;7837332;18;19994;-67
2023/04/15 06:37:33;;;;;;;6.53;5.80;;;;;;;6.94;100.00;100346.13;7789686;18;20010;-69
2023/04/15 06:40:00;;;;;;;5.82;5.43;;;;;;;7.42;100.00;100407.53;7834944;18;20007;-67
2023/04/15 06:42:26;;;;;;;5.93;5.53;;;;;;;7.38;100.00;100416.41;7789265;18;20384;-67
2023/04/15 06:44:52;;;;;;;16.15;6.65;;;;;;;7.37;100.00;100425.16;7836263;18;20000;-65
2023/04/15 06:47:19;;;;;;;9.32;6.38;;;;;;;7.13;100.00;100390.50;7790520;18;20371;-64
2023/04/15 06:49:45;;;;;;;6.90;6.30;;;;;;;7.48;100.00;100456.88;7837146;18;20021;-64
2023/04/15 06:52:11;;;;;;;6.45;5.85;;;;;;;7.51;100.00;100467.16;7789819;18;19990;-65
2023/04/15 06:54:38;;;;;;;9.25;6.82;;;;;;;7.71;100.00;100465.47;7842727;18;20006;-67
2023/04/15 06:57:05;;;;;;;6.78;6.10;;;;;;;7.21;100.00;100372.75;7795313;18;20053;-68
2023/04/15 06:59:32;;;;;;;8.35;7.03;;;;;;;7.85;100.00;100470.06;7840296;18;20529;-68
2023/04/15 07:01:58;;;;;;;9.90;5.75;;;;;;;8.06;100.00;100476.97;7793169;18;20218;-68
2023/04/15 07:04:25;;;;;;;7.00;6.38;;;;;;;7.83;100.00;100401.38;7837155;18;20065;-68
2023/04/15 07:06:56;;;;;;;7.53;6.90;;;;;;;8.49;100.00;100472.38;7791390;18;20002;-69
2023/04/15 07:09:23;;;;;;;20.53;6.37;;;;;;;8.74;100.00;100466.84;7838305;18;20394;-68
2023/04/15 07:11:50;;;;;;;9.32;6.95;;;;;;;9.03;99.80;100472.41;7792036;18;20260;-69
2023/04/15 07:14:17;;;;;;;6.60;6.00;;;;;;;9.04;97.51;100449.69;7839481;18;19997;-68
2023/04/15 07:16:43;;;;;;;8.18;6.30;;;;;;;8.88;94.80;100429.53;7792784;18;20475;-68
2023/04/15 07:19:10;;;;;;;6.68;6.13;;;;;;;8.98;95.18;100440.41;7838097;18;19997;-68
2023/04/15 07:21:37;;;;;;;11.48;7.57;;;;;;;9.19;94.17;100444.53;7791608;18;20554;-69
2023/04/15 07:24:06;;;;;;;7.68;6.97;;;;;;;9.28;92.04;100435.38;7830881;18;20002;-68
2023/04/15 07:26:33;;;;;;;11.32;5.93;;;;;;;9.07;93.06;100387.56;7791709;18;20010;-68
2023/04/15 07:28:59;;;;;;;7.47;6.88;;;;;;;9.33;91.02;100409.78;7837599;18;20584;-69
2023/04/15 07:31:26;;;;;;;6.63;6.07;;;;;;;9.73;90.77;100438.31;7792439;18;19998;-68
2023/04/15 07:33:53;;;;;;;11.88;6.28;;;;;;;9.75;88.50;100425.97;7838128;18;19998;-68
2023/04/15 07:36:19;;;;;;;7.22;6.43;;;;;;;9.92;87.58;100419.81;7792203;18;20027;-68
2023/04/15 07:38:46;;;;;;;6.10;5.40;;;;;;;10.09;86.54;100411.88;7838500;18;20072;-68
2023/04/15 07:41:13;;;;;;;6.45;5.85;;;;;;;10.09;83.17;100377.81;7791548;18;19998;-67
2023/04/15 07:43:39;;;;;;;6.85;6.13;;;;;;;10.28;82.21;100382.84;7838216;18;19993;-64
2023/04/15 07:46:05;;;;;;;6.32;5.88;;;;;;;10.34;81.65;100382.56;7787798;18;19998;-65
2023/04/15 07:48:32;;;;;;;7.00;6.40;;;;;;;10.46;82.31;100398.53;7835201;18;19993;-65
2023/04/15 07:51:01;;;;;;;8.23;5.97;;;;;;;9.90;79.34;100269.66;7789646;18;20387;-65
2023/04/15 07:53:28;;;;;;;6.80;6.20;;;;;;;10.57;77.89;100356.81;7835430;18;20065;-65
2023/04/15 07:55:54;;;;;;;6.32;5.75;;;;;;;10.47;76.77;100324.16;7790542;18;20005;-66
2023/04/15 07:58:21;;;;;;;6.05;5.50;;;;;;;10.30;76.49;100291.00;7838158;18;20477;-65
2023/04/15 08:00:47;;;;;;;5.75;5.22;;;;;;;10.13;77.12;100289.34;7785934;18;19998;-66
2023/04/15 08:03:14;;;;;;;5.55;5.05;;;;;;;10.03;77.13;100273.28;7837871;18;20445;-65
2023/04/15 08:05:41;;;;;;;5.40;5.00;;;;;;;10.50;75.65;100335.31;7790846;18;20017;-64
2023/04/15 08:08:07;;;;;;;7.03;6.43;;;;;;;10.35;73.32;100276.69;7835803;18;20021;-64
2023/04/15 08:10:36;;;;;;;5.47;5.10;;;;;;;10.39;73.41;100280.00;7790636;18;20002;-65
2023/04/15 08:13:03;;;;;;;6.00;5.43;;;;;;;10.31;74.04;100282.22;7835551;18;20008;-64
2023/04/15 08:15:31;;;;;;;5.13;4.78;;;;;;;10.58;74.12;100337.47;7790838;18;20008;-65
2023/04/15 08:17:59;;;;;;;5.53;5.13;;;;;;;10.78;73.04;100312.69;7838666;18;19997;-65
2023/04/15 08:20:26;;;;;;;5.55;5.15;;;;;;;10.99;72.08;100307.97;7788275;18;20001;-66
2023/04/15 08:22:53;;;;;;;5.57;5.07;;;;;;;11.01;69.98;100244.84;7838922;18;20021;-65
2023/04/15 08:25:19;;;;;;;6.38;5.80;;;;;;;10.91;69.32;100241.94;7791474;18;20023;-66
2023/04/15 08:27:46;;;;;;;5.50;4.90;;;;;;;10.50;69.41;100162.16;7837762;18;20022;-65
2023/04/15 08:30:13;;;;;;;6.75;5.68;;;;;;;11.13;70.51;100273.81;7789990;18;20521;-65
2023/04/15 08:32:41;;;;;;;5.03;4.80;;;;;;;10.97;69.02;100207.44;7839138;18;19990;-65
2023/04/15 08:35:08;;;;;;;5.10;4.80;;;;;;;11.14;68.10;100198.50;7790960;18;20001;-66
2023/04/15 08:37:34;;;;;;;6.13;5.22;;;;;;;11.32;67.36;100201.75;7837695;18;19997;-65
2023/04/15 08:40:00;;;;;;;5.07;4.78;;;;;;;11.28;66.47;100182.72;7789426;18;20068;-65
2023/04/15 08:42:31;;;;;;;5.72;5.25;;;;;;;10.98;66.71;100140.84;7791092;18;20533;-65
2023/04/15 08:45:00;;;;;;;5.25;4.95;;;;;;;11.41;64.88;100146.00;7789465;18;20002;-65
2023/04/15 08:47:30;;;;;;;4.97;4.68;;;;;;;11.49;63.64;100113.97;7791049;18;19998;-64
2023/04/15 08:49:57;;;;;;;5.38;5.07;;;;;;;11.51;63.81;100098.97;7788303;18;20024;-66
2023/04/15 08:52:25;;;;;;;5.18;4.88;;;;;;;11.91;66.19;100244.44;7790606;18;20063;-64
2023/04/15 08:54:56;;;;;;;5.63;5.25;;;;;;;11.70;65.83;100201.91;7790197;18;20522;-65
2023/04/15 08:57:27;;;;;;;4.97;4.68;;;;;;;11.47;65.13;100153.50;7789694;18;19994;-65
2023/04/15 08:59:55;;;;;;;6.20;5.60;;;;;;;10.91;63.98;100089.69;7788094;18;20229;-65
2023/04/15 09:02:23;;;;;;;5.32;4.93;;;;;;;11.01;64.69;100127.53;7790028;18;19994;-65
2023/04/15 09:04:49;;;;;;;5.40;5.05;;;;;;;11.37;64.09;100153.22;7789166;18;19998;-65
2023/04/15 09:07:16;;;;;;;5.55;5.00;;;;;;;11.35;65.44;100183.19;7790251;18;20014;-66
2023/04/15 09:09:42;;;;;;;6.47;5.97;;;;;;;11.21;65.82;100172.72;7787523;18;20005;-65
2023/04/15 09:12:10;;;;;;;5.68;5.35;;;;;;;11.34;66.37;100207.75;7790003;18;20002;-66
2023/04/15 09:14:39;;;;;;;5.93;5.53;;;;;;;11.67;67.45;100261.75;7789651;18;20002;-65
2023/04/15 09:17:09;;;;;;;6.60;5.95;;;;;;;10.60;66.10;100054.00;7789723;18;19998;-66
2023/04/15 09:19:35;;;;;;;6.80;6.20;;;;;;;11.64;65.26;100198.84;7789421;18;19998;-64
2023/04/15 09:22:02;;;;;;;5.63;5.13;;;;;;;11.34;65.08;100136.81;7789647;18;20087;-65
2023/04/15 09:24:39;;;;;;;5.75;5.35;;;;;;;11.59;66.13;100207.03;7789611;18;20010;-66
2023/04/15 09:27:06;;;;;;;6.10;5.65;;;;;;;12.01;64.53;100228.03;7790242;18;20071;-66
2023/04/15 09:29:32;;;;;;;6.63;6.03;;;;;;;12.08;64.60;100192.50;7789198;18;20506;-65
2023/04/15 09:32:12;;;;;;;5.68;5.28;;;;;;;11.73;62.17;100072.09;7791236;18;20001;-65
2023/04/15 09:34:39;;;;;;;5.97;5.45;;;;;;;11.91;62.94;100138.41;7790051;18;19998;-66
2023/04/15 09:37:06;;;;;;;7.32;5.63;;;;;;;11.91;63.12;100159.44;7790963;18;20530;-66
2023/04/15 09:39:51;;;;;;;6.22;5.63;;;;;;;11.86;64.19;100164.13;7789852;18;19998;-66
2023/04/15 09:42:25;;;;;;;5.97;5.57;;;;;;;11.89;63.15;100151.66;7790036;18;20012;-66
2023/04/15 09:44:52;;;;;;;6.47;5.97;;;;;;;12.23;62.94;100191.47;7789307;18;20079;-66
2023/04/15 09:47:31;;;;;;;6.57;5.95;;;;;;;12.08;62.97;100142.53;7750897;18;20005;-66
2023/04/15 09:49:59;;;;;;;6.68;6.07;;;;;;;11.63;62.97;100065.78;7788762;18;19990;-65
2023/04/15 09:52:26;;;;;;;7.22;6.32;;;;;;;11.98;63.07;100172.06;7796428;18;20050;-65
2023/04/15 09:54:56;;;;;;;6.05;5.53;;;;;;;11.93;63.45;100178.59;7804058;18;20494;-65
2023/04/15 09:57:23;;;;;;;5.40;5.00;;;;;;;11.97;63.50;100188.78;7791163;18;20729;-65
2023/04/15 09:59:50;;;;;;;5.75;5.35;;;;;;;11.93;62.97;100174.16;7788830;18;20025;-65
2023/04/15 10:02:20;;;;;;;5.70;5.30;;;;;;;11.94;63.16;100190.78;7790563;18;20002;-65
2023/04/15 10:04:47;;;;;;;4.82;4.53;;;;;;;12.06;61.62;100094.44;7788876;18;20010;-64
2023/04/15 10:07:16;;;;;;;5.47;5.13;;;;;;;11.68;61.25;100040.84;7790793;18;20071;-65
2023/04/15 10:09:45;;;;;;;5.25;4.95;;;;;;;12.38;61.63;100187.78;7789667;18;20002;-66
2023/04/15 10:12:12;;;;;;;5.50;5.10;;;;;;;12.29;61.85;100167.38;7787786;18;20469;-66
2023/04/15 10:14:40;;;;;;;4.80;4.60;;;;;;;12.56;61.23;100166.44;7788597;18;20029;-66
2023/04/15 10:17:07;;;;;;;4.82;4.53;;;;;;;12.10;61.06;100135.38;7789990;18;19994;-65
2023/04/15 10:19:36;;;;;;;5.22;4.88;;;;;;;11.98;61.52;100114.19;7788118;18;20013;-66
2023/04/15 10:22:03;;;;;;;5.28;4.97;;;;;;;12.63;61.27;100220.34;7748340;18;20009;-66
2023/04/15 10:24:33;;;;;;;5.43;5.03;;;;;;;12.78;60.70;100195.59;7789354;18;19994;-66
2023/04/15 10:26:59;;;;;;;5.30;4.90;;;;;;;12.27;61.30;100145.59;7789455;18;20446;-67
2023/04/15 10:29:29;;;;;;;7.10;5.40;;;;;;;12.73;61.94;100239.84;7747968;18;19990;-66
2023/04/15 10:31:55;;;;;;;5.60;5.20;;;;;;;12.96;60.64;100196.09;7792094;18;20068;-67
2023/04/15 10:34:24;;;;;;;5.63;5.22;;;;;;;12.79;60.59;100193.81;7791422;18;20002;-66
2023/04/15 10:36:50;;;;;;;9.32;4.72;;;;;;;13.35;60.26;100268.06;7751550;18;19998;-66
2023/04/15 10:39:32;;;;;;;5.90;5.45;;;;;;;13.41;58.50;100156.09;7791575;18;19998;-66
2023/04/15 10:42:20;;;;;;;5.70;5.40;;;;;;;13.12;59.54;100144.97;7750618;18;19998;-67
2023/04/15 10:44:51;;;;;;;5.47;5.03;;;;;;;13.07;60.39;100184.81;7791066;18;20008;-66
2023/04/15 10:47:19;;;;;;;5.88;5.30;;;;;;;13.19;60.91;100283.22;7792190;18;20010;-66
2023/04/15 10:49:57;;;;;;;5.63;5.32;;;;;;;13.23;59.98;100216.19;7790625;18;20001;-66
2023/04/15 10:52:27;;;;;;;5.82;5.40;;;;;;;12.93;60.19;100221.84;7750635;18;20005;-66
2023/04/15 10:55:10;;;;;;;5.97;5.57;;;;;;;13.01;61.20;100279.22;7791059;18;20008;-66
2023/04/15 10:57:38;;;;;;;5.60;5.30;;;;;;;12.56;60.64;100212.03;7793422;18;20022;-66
2023/04/15 11:00:12;;;;;;;5.88;5.47;;;;;;;12.79;61.44;100254.38;7791766;18;20025;-67
2023/04/15 11:02:57;;;;;;;5.60;5.20;;;;;;;12.81;62.07;100285.84;7839351;18;20429;-67
2023/04/15 11:05:41;;;;;;;5.82;5.43;;;;;;;13.27;61.84;100332.75;7792311;18;20605;-66
2023/04/15 11:08:12;;;;;;;5.45;5.10;;;;;;;13.14;61.67;100304.59;7838582;18;20013;-66
2023/04/15 11:10:38;;;;;;;6.05;5.65;;;;;;;12.96;61.84;100326.97;7792158;18;20013;-66
2023/04/15 11:13:16;;;;;;;5.93;5.53;;;;;;;10.90;62.07;100044.19;7795629;18;20000;-67
2023/04/15 11:15:44;;;;;;;5.93;5.45;;;;;;;12.28;62.77;100302.50;7792407;18;20021;-66
2023/04/15 11:18:16;;;;;;;5.60;5.30;;;;;;;12.32;65.03;100403.13;7839118;18;20001;-66
2023/04/15 11:20:44;;;;;;;5.43;5.00;;;;;;;12.07;64.95;100351.28;7790376;18;20002;-66
2023/04/15 11:23:11;;;;;;;5.68;5.28;;;;;;;12.04;64.33;100372.50;7838934;18;20059;-66
2023/04/15 11:25:41;;;;;;;5.85;5.35;;;;;;;12.03;65.27;100404.97;7792420;18;20010;-66
2023/04/15 11:28:09;;;;;;;5.70;5.30;;;;;;;11.93;65.31;100407.38;7839185;18;20001;-66